createdAt,value
2017-11-12T00:01:16.294Z,4.53
2017-11-12T00:03:42.084Z,5.97
2017-11-12T00:06:07.860Z,16.00
2017-11-12T00:08:33.682Z,2.50
2017-11-12T00:10:59.498Z,2.17
2017-11-12T00:13:25.279Z,2.90
2017-11-12T00:15:51.082Z,6.00
2017-11-12T00:18:16.893Z,6.30
2017-11-12T00:20:42.681Z,5.93
2017-11-12T00:23:08.474Z,3.07
2017-11-12T00:25:34.789Z,4.73
2017-11-12T00:28:00.584Z,13.23
2017-11-12T00:30:26.382Z,8.80
2017-11-12T00:32:52.202Z,6.03
2017-11-12T00:35:17.995Z,6.87
2017-11-12T00:37:43.793Z,2.30
2017-11-12T00:40:09.584Z,10.00
2017-11-12T00:42:35.382Z,6.43
2017-11-12T00:45:02.008Z,6.70
2017-11-12T00:47:27.790Z,6.15
2017-11-12T00:49:53.577Z,4.33
2017-11-12T00:52:19.396Z,4.33
2017-11-12T00:54:45.190Z,6.93
2017-11-12T00:57:10.973Z,5.73
2017-11-12T00:59:36.781Z,4.30
2017-11-12T01:02:02.571Z,9.57
2017-11-12T01:04:29.223Z,8.27
2017-11-12T01:06:54.996Z,4.43
2017-11-12T01:09:20.783Z,7.83
2017-11-12T01:11:46.581Z,3.20
2017-11-12T01:14:12.379Z,8.50
2017-11-12T01:16:38.164Z,2.70
2017-11-12T01:19:03.975Z,2.47
2017-11-12T01:21:29.763Z,1.93
2017-11-12T01:23:55.544Z,2.93
2017-11-12T01:26:21.358Z,8.60
2017-11-12T01:28:47.157Z,8.17
2017-11-12T01:31:12.948Z,7.23
2017-11-12T01:33:38.860Z,7.23
2017-11-12T01:36:04.665Z,4.37
2017-11-12T01:38:30.479Z,10.20
2017-11-12T01:40:56.325Z,3.70
2017-11-12T01:43:22.149Z,4.90
2017-11-12T01:45:47.932Z,3.50
2017-11-12T01:48:13.767Z,4.23
2017-11-12T01:50:39.573Z,7.63
2017-11-12T01:53:05.360Z,3.03
2017-11-12T01:55:31.149Z,1.87
2017-11-12T01:57:56.972Z,3.23
2017-11-12T02:00:22.765Z,5.63
2017-11-12T02:02:48.620Z,3.93
2017-11-12T02:05:14.453Z,5.57
2017-11-12T02:07:40.295Z,4.27
2017-11-12T02:10:06.096Z,4.83
2017-11-12T02:12:31.889Z,5.63
2017-11-12T02:14:57.712Z,1.50
2017-11-12T02:17:23.500Z,2.13
2017-11-12T02:19:49.388Z,2.60
2017-11-12T02:22:15.397Z,3.23
2017-11-12T02:24:41.264Z,3.28
2017-11-12T02:27:07.483Z,7.87
2017-11-12T02:29:34.189Z,3.05
2017-11-12T02:31:59.996Z,3.20
2017-11-12T02:34:25.812Z,4.27
2017-11-12T02:36:51.670Z,4.40
2017-11-12T02:39:17.493Z,7.20
2017-11-12T02:41:43.316Z,7.67
2017-11-12T02:44:09.195Z,3.87
2017-11-12T02:46:35.021Z,4.83
2017-11-12T02:49:00.823Z,6.93
2017-11-12T02:51:26.621Z,5.20
2017-11-12T02:53:52.445Z,8.93
2017-11-12T02:56:18.305Z,12.10
2017-11-12T02:58:44.121Z,9.03
2017-11-12T03:01:09.913Z,7.90
2017-11-12T03:03:35.728Z,8.10
2017-11-12T03:06:01.524Z,11.80
2017-11-12T03:08:27.331Z,3.63
2017-11-12T03:10:53.172Z,6.50
2017-11-12T03:13:18.954Z,5.90
2017-11-12T03:15:44.746Z,6.03
2017-11-12T03:18:10.748Z,8.73
2017-11-12T03:20:36.564Z,9.73
2017-11-12T03:23:02.426Z,11.73
2017-11-12T03:25:28.240Z,7.83
2017-11-12T03:27:54.092Z,5.83
2017-11-12T03:30:19.940Z,8.43
2017-11-12T03:32:45.781Z,15.80
2017-11-12T03:35:11.600Z,2.80
2017-11-12T03:37:37.377Z,10.23
2017-11-12T03:40:03.273Z,4.20
2017-11-12T03:42:29.052Z,5.03
2017-11-12T03:44:54.863Z,1.83
2017-11-12T03:47:20.708Z,12.73
2017-11-12T03:49:46.488Z,8.10
2017-11-12T03:52:12.328Z,7.20
2017-11-12T03:54:38.148Z,11.00
2017-11-12T03:57:03.951Z,19.97
2017-11-12T03:59:29.738Z,8.63
2017-11-12T04:01:55.565Z,12.03
2017-11-12T04:04:21.370Z,5.77
2017-11-12T04:06:47.171Z,13.73
2017-11-12T04:09:13.065Z,6.97
2017-11-12T04:11:38.849Z,6.50
2017-11-12T04:14:04.649Z,17.23
2017-11-12T04:16:30.461Z,10.03
2017-11-12T04:18:56.255Z,9.07
2017-11-12T04:21:22.047Z,7.90
2017-11-12T04:23:47.868Z,11.10
2017-11-12T04:26:13.652Z,7.20
2017-11-12T04:28:39.434Z,10.43
2017-11-12T04:31:05.225Z,8.07
2017-11-12T04:33:31.028Z,10.13
2017-11-12T04:35:56.834Z,4.13
2017-11-12T04:38:22.627Z,5.33
2017-11-12T04:40:48.416Z,6.33
2017-11-12T04:43:14.234Z,11.10
2017-11-12T04:45:40.053Z,7.20
2017-11-12T04:48:05.849Z,9.43
2017-11-12T04:50:31.633Z,5.73
2017-11-12T04:52:57.901Z,4.20
2017-11-12T04:55:23.705Z,6.75
2017-11-12T04:57:49.496Z,7.83
2017-11-12T05:00:15.617Z,6.60
2017-11-12T05:02:41.424Z,10.75
2017-11-12T05:05:07.249Z,10.80
2017-11-12T05:07:33.051Z,10.80
2017-11-12T05:09:58.842Z,8.20
2017-11-12T05:12:25.482Z,6.00
2017-11-12T05:14:51.275Z,11.00
2017-11-12T05:17:17.045Z,6.30
2017-11-12T05:19:43.207Z,7.53
2017-11-12T05:22:09.000Z,7.20
2017-11-12T05:24:34.775Z,12.63
2017-11-12T05:27:00.603Z,6.10
2017-11-12T05:29:26.394Z,9.63
2017-11-12T05:31:52.185Z,7.60
2017-11-12T05:34:18.324Z,8.93
2017-11-12T05:36:44.104Z,8.00
2017-11-12T05:39:09.944Z,6.77
2017-11-12T05:41:35.744Z,6.00
2017-11-12T05:44:01.536Z,8.00
2017-11-12T05:46:27.362Z,11.43
2017-11-12T05:48:53.157Z,7.30
2017-11-12T05:51:18.940Z,4.10
2017-11-12T05:53:44.963Z,14.93
2017-11-12T05:56:10.757Z,11.67
2017-11-12T05:58:36.577Z,16.70
2017-11-12T06:01:02.387Z,9.10
2017-11-12T06:03:28.188Z,18.63
2017-11-12T06:05:54.001Z,14.93
2017-11-12T06:08:19.810Z,11.90
2017-11-12T06:10:45.643Z,9.60
2017-11-12T06:13:11.425Z,8.30
2017-11-12T06:15:37.252Z,8.87
2017-11-12T06:18:03.080Z,13.33
2017-11-12T06:20:28.901Z,7.30
2017-11-12T06:22:54.740Z,12.13
2017-11-12T06:25:20.534Z,8.70
2017-11-12T06:27:46.340Z,2.93
2017-11-12T06:30:12.124Z,6.00
2017-11-12T06:32:37.905Z,10.80
2017-11-12T06:35:03.728Z,6.27
2017-11-12T06:37:29.508Z,15.40
2017-11-12T06:39:55.331Z,4.57
2017-11-12T06:42:21.125Z,6.70
2017-11-12T06:44:46.915Z,5.47
2017-11-12T06:47:13.083Z,12.10
2017-11-12T06:49:38.877Z,14.10
2017-11-12T06:52:04.671Z,7.23
2017-11-12T06:54:30.472Z,11.27
2017-11-12T06:56:56.253Z,9.90
2017-11-12T06:59:22.048Z,9.40
2017-11-12T07:01:47.847Z,13.17
2017-11-12T07:04:13.633Z,25.87
2017-11-12T07:06:39.428Z,9.10
2017-11-12T07:09:05.261Z,6.47
2017-11-12T07:11:31.050Z,8.03
2017-11-12T07:13:56.836Z,10.87
2017-11-12T07:16:22.668Z,13.60
2017-11-12T07:18:48.481Z,7.40
2017-11-12T07:21:14.264Z,5.30
2017-11-12T07:23:40.068Z,10.77
2017-11-12T07:26:05.866Z,11.17
2017-11-12T07:28:31.655Z,8.83
2017-11-12T07:30:57.610Z,9.10
2017-11-12T07:33:23.399Z,8.40
2017-11-12T07:35:49.192Z,14.10
2017-11-12T07:38:14.995Z,10.10
2017-11-12T07:40:40.785Z,9.47
2017-11-12T07:43:06.615Z,13.80
2017-11-12T07:45:32.417Z,10.77
2017-11-12T07:47:58.229Z,12.30
2017-11-12T07:50:24.018Z,14.50
2017-11-12T07:52:50.166Z,13.33
2017-11-12T07:55:15.972Z,10.50
2017-11-12T07:57:41.810Z,12.67
2017-11-12T08:00:07.745Z,13.07
2017-11-12T08:02:33.560Z,8.63
2017-11-12T08:04:59.355Z,10.03
2017-11-12T08:07:25.245Z,9.90
2017-11-12T08:09:51.037Z,9.00
2017-11-12T08:12:16.854Z,20.40
2017-11-12T08:14:42.903Z,18.43
2017-11-12T08:17:08.701Z,11.65
2017-11-12T08:19:34.488Z,5.00
2017-11-12T08:22:00.305Z,9.70
2017-11-12T08:24:26.132Z,14.53
2017-11-12T08:26:51.931Z,8.50
2017-11-12T08:29:17.724Z,16.83
2017-11-12T08:31:43.513Z,8.07
2017-11-12T08:34:09.305Z,6.67
2017-11-12T08:36:35.157Z,7.40
2017-11-12T08:39:00.985Z,5.57
2017-11-12T08:41:26.764Z,5.40
2017-11-12T08:43:52.689Z,9.33
2017-11-12T08:46:18.531Z,10.67
2017-11-12T08:48:44.381Z,11.17
2017-11-12T08:51:10.512Z,13.50
2017-11-12T08:53:36.331Z,9.75
2017-11-12T08:56:02.177Z,7.70
2017-11-12T08:58:28.197Z,11.23
2017-11-12T09:00:53.992Z,11.20
2017-11-12T09:03:19.785Z,11.10
2017-11-12T09:05:45.935Z,12.40
2017-11-12T09:08:11.727Z,6.03
2017-11-12T09:10:37.512Z,10.27
2017-11-12T09:13:03.318Z,6.13
2017-11-12T09:15:29.114Z,9.40
2017-11-12T09:17:54.950Z,22.13
2017-11-12T09:20:20.745Z,12.87
2017-11-12T09:22:46.529Z,12.03
2017-11-12T09:25:12.595Z,6.13
2017-11-12T09:27:38.397Z,10.82
2017-11-12T09:30:04.198Z,7.63
2017-11-12T09:32:30.027Z,14.10
2017-11-12T09:34:55.835Z,6.10
2017-11-12T09:37:21.640Z,7.97
2017-11-12T09:39:47.432Z,17.00
2017-11-12T09:42:13.229Z,10.63
2017-11-12T09:44:39.340Z,10.00
2017-11-12T09:47:05.147Z,7.53
2017-11-12T09:49:30.941Z,12.07
2017-11-12T09:51:57.567Z,9.90
2017-11-12T09:54:23.375Z,12.93
2017-11-12T09:56:49.191Z,12.17
2017-11-12T09:59:15.018Z,8.77
2017-11-12T10:01:40.825Z,17.27
2017-11-12T10:04:06.619Z,8.53
2017-11-12T10:06:33.238Z,13.53
2017-11-12T10:08:59.032Z,17.00
2017-11-12T10:11:24.812Z,8.50
2017-11-12T10:13:50.609Z,8.17
2017-11-12T10:16:16.401Z,12.00
2017-11-12T10:18:42.172Z,9.70
2017-11-12T10:21:08.159Z,8.90
2017-11-12T10:23:33.949Z,11.67
2017-11-12T10:25:59.729Z,10.23
2017-11-12T10:28:25.800Z,16.37
2017-11-12T10:30:51.590Z,11.32
2017-11-12T10:33:17.373Z,22.10
2017-11-12T10:35:43.477Z,30.43
2017-11-12T10:38:09.259Z,22.20
2017-11-12T10:40:35.056Z,8.33
2017-11-12T10:43:00.870Z,22.23
2017-11-12T10:45:26.669Z,37.27
2017-11-12T10:47:52.481Z,29.10
2017-11-12T10:50:18.306Z,10.37
2017-11-12T10:52:44.085Z,9.50
2017-11-12T10:55:09.870Z,18.73
2017-11-12T10:57:35.701Z,14.37
2017-11-12T11:00:01.495Z,6.30
2017-11-12T11:02:27.281Z,17.73
2017-11-12T11:04:53.105Z,14.63
2017-11-12T11:07:18.900Z,8.60
2017-11-12T11:09:44.680Z,9.83
2017-11-12T11:12:10.476Z,2.87
2017-11-12T11:14:36.435Z,10.33
2017-11-12T11:17:02.481Z,19.87
2017-11-12T11:19:28.278Z,16.45
2017-11-12T11:21:54.060Z,9.47
2017-11-12T11:24:20.148Z,10.30
2017-11-12T11:26:45.940Z,8.77
2017-11-12T11:29:11.734Z,19.23
2017-11-12T11:31:37.541Z,14.83
2017-11-12T11:34:03.354Z,8.30
2017-11-12T11:36:29.136Z,4.97
2017-11-12T11:38:55.789Z,6.63
2017-11-12T11:41:21.580Z,12.23
2017-11-12T11:43:47.372Z,18.00
2017-11-12T11:46:13.166Z,10.03
2017-11-12T11:48:38.956Z,13.20
2017-11-12T11:51:04.744Z,12.20
2017-11-12T11:53:30.585Z,19.60
2017-11-12T11:55:56.416Z,11.00
2017-11-12T11:58:22.226Z,7.63
2017-11-12T12:00:48.038Z,13.43
2017-11-12T12:03:13.861Z,13.73
2017-11-12T12:05:39.684Z,15.13
2017-11-12T12:08:05.476Z,10.53
2017-11-12T12:10:31.275Z,12.77
2017-11-12T12:12:57.092Z,14.50
2017-11-12T12:15:22.872Z,5.63
2017-11-12T12:17:48.669Z,13.20
2017-11-12T12:20:14.481Z,12.63
2017-11-12T12:22:40.251Z,19.43
2017-11-12T12:25:06.047Z,10.10
2017-11-12T12:27:31.878Z,11.93
2017-11-12T12:29:57.665Z,11.07
2017-11-12T12:32:23.450Z,13.87
2017-11-12T12:34:49.285Z,4.60
2017-11-12T12:37:15.073Z,14.57
2017-11-12T12:39:40.865Z,7.80
2017-11-12T12:42:06.701Z,11.47
2017-11-12T12:44:32.525Z,9.67
2017-11-12T12:46:58.340Z,12.70
2017-11-12T12:49:24.487Z,10.13
2017-11-12T12:51:50.284Z,20.00
2017-11-12T12:54:16.098Z,7.23
2017-11-12T12:56:41.914Z,13.10
2017-11-12T12:59:07.708Z,20.67
2017-11-12T13:01:33.508Z,12.53
2017-11-12T13:04:00.334Z,11.57
2017-11-12T13:06:26.154Z,15.52
2017-11-12T13:08:51.933Z,14.57
2017-11-12T13:11:17.772Z,13.90
2017-11-12T13:13:43.578Z,109.63
2017-11-12T13:16:09.369Z,86.57
2017-11-12T13:18:35.171Z,38.23
2017-11-12T13:21:00.993Z,35.67
2017-11-12T13:23:26.789Z,23.53
2017-11-12T13:25:52.572Z,9.77
2017-11-12T13:28:18.396Z,18.33
2017-11-12T13:30:44.196Z,11.40
2017-11-12T13:33:09.983Z,11.17
2017-11-12T13:35:35.834Z,145.67
2017-11-12T13:38:01.645Z,147.63
2017-11-12T13:40:27.436Z,14.63
2017-11-12T13:42:53.269Z,23.93
2017-11-12T13:45:19.106Z,12.40
2017-11-12T13:47:44.925Z,24.97
2017-11-12T13:50:10.716Z,13.33
2017-11-12T13:52:36.506Z,22.83
2017-11-12T13:55:02.315Z,17.30
2017-11-12T13:57:28.092Z,9.90
2017-11-12T13:59:53.876Z,13.23
2017-11-12T14:02:19.696Z,39.50
2017-11-12T14:04:46.296Z,77.85
2017-11-12T14:07:12.081Z,72.43
2017-11-12T14:09:37.921Z,23.10
2017-11-12T14:12:03.734Z,14.03
2017-11-12T14:14:29.431Z,9.83
2017-11-12T14:16:55.236Z,10.00
2017-11-12T14:19:21.022Z,12.53
2017-11-12T14:21:46.825Z,12.87
2017-11-12T14:24:13.553Z,6.90
2017-11-12T14:26:39.370Z,7.80
2017-11-12T14:29:05.164Z,8.33
2017-11-12T14:31:30.958Z,8.93
2017-11-12T14:33:56.748Z,6.90
2017-11-12T14:36:22.554Z,8.50
2017-11-12T14:38:48.365Z,12.73
2017-11-12T14:41:14.161Z,9.43
2017-11-12T14:43:40.220Z,9.20
2017-11-12T14:46:06.041Z,9.65
2017-11-12T14:48:31.856Z,18.87
2017-11-12T14:50:57.681Z,7.73
2017-11-12T14:53:23.453Z,34.87
2017-11-12T14:55:49.306Z,42.97
2017-11-12T14:58:15.127Z,49.07
2017-11-12T15:00:47.897Z,20.90
2017-11-12T15:03:14.640Z,11.73
2017-11-12T15:05:40.448Z,5.55
2017-11-12T15:08:06.253Z,12.70
2017-11-12T15:10:32.057Z,9.07
2017-11-12T15:12:57.857Z,13.57
2017-11-12T15:15:23.644Z,11.87
2017-11-12T15:17:49.764Z,11.83
2017-11-12T15:20:15.573Z,14.52
2017-11-12T15:22:41.369Z,10.17
2017-11-12T15:25:07.174Z,15.43
2017-11-12T15:27:32.954Z,9.00
2017-11-12T15:29:58.742Z,18.73
2017-11-12T15:32:24.537Z,10.10
2017-11-12T15:34:50.327Z,11.40
2017-11-12T15:37:16.118Z,11.40
2017-11-12T15:39:41.905Z,15.37
2017-11-12T15:42:07.692Z,13.27
2017-11-12T15:44:33.485Z,13.17
2017-11-12T15:46:59.356Z,22.50
2017-11-12T15:49:25.168Z,14.33
2017-11-12T15:54:23.574Z,21.30
2017-11-12T15:56:49.365Z,13.50
2017-11-12T15:59:15.150Z,15.00
2017-11-12T16:01:40.950Z,20.17
2017-11-12T16:04:06.744Z,12.20
2017-11-12T16:06:32.566Z,13.53
2017-11-12T16:08:58.357Z,11.27
2017-11-12T16:11:24.205Z,18.23
2017-11-12T16:13:50.542Z,19.80
2017-11-12T16:16:16.352Z,13.43
2017-11-12T16:18:42.149Z,24.90
2017-11-12T16:21:07.971Z,13.97
2017-11-12T16:23:33.745Z,17.23
2017-11-12T16:25:59.531Z,15.90
2017-11-12T16:28:25.337Z,20.20
2017-11-12T16:30:51.140Z,17.53
2017-11-12T16:33:16.924Z,16.40
2017-11-12T16:35:42.759Z,19.20
2017-11-12T16:38:08.565Z,18.43
2017-11-12T16:40:41.440Z,15.73
2017-11-12T16:43:07.234Z,19.08
2017-11-12T16:45:33.025Z,23.23
2017-11-12T16:47:58.859Z,30.73
2017-11-12T16:50:24.760Z,22.50
2017-11-12T16:52:50.558Z,17.03
2017-11-12T16:55:16.361Z,21.57
2017-11-12T16:57:42.170Z,24.30
2017-11-12T17:00:07.957Z,24.00
2017-11-12T17:02:34.753Z,22.40
2017-11-12T17:05:00.548Z,17.65
2017-11-12T17:07:26.348Z,16.40
2017-11-12T17:09:52.161Z,20.47
2017-11-12T17:12:17.955Z,27.90
2017-11-12T17:14:43.790Z,15.70
2017-11-12T17:17:09.612Z,24.73
2017-11-12T17:19:35.507Z,18.90
2017-11-12T17:22:01.289Z,15.20
2017-11-12T17:24:27.102Z,25.07
2017-11-12T17:26:52.885Z,17.87
2017-11-12T17:29:18.678Z,22.53
2017-11-12T17:31:44.589Z,26.50
2017-11-12T17:34:10.400Z,23.13
2017-11-12T17:36:36.185Z,19.03
2017-11-12T17:39:02.220Z,26.40
2017-11-12T17:41:28.017Z,22.20
2017-11-12T17:43:53.806Z,24.10
2017-11-12T17:46:19.606Z,37.03
2017-11-12T17:48:45.382Z,19.03
2017-11-12T17:51:11.183Z,19.37
2017-11-12T17:53:37.008Z,22.80
2017-11-12T17:56:02.829Z,19.83
2017-11-12T17:58:28.626Z,23.70
2017-11-12T18:00:54.628Z,20.10
2017-11-12T18:03:20.421Z,24.10
2017-11-12T18:05:46.226Z,22.47
2017-11-12T18:08:12.398Z,22.47
2017-11-12T18:10:38.194Z,22.83
2017-11-12T18:13:04.021Z,24.87
2017-11-12T18:15:29.830Z,22.47
2017-11-12T18:17:55.637Z,28.67
2017-11-12T18:20:21.453Z,21.47
2017-11-12T18:22:47.370Z,26.60
2017-11-12T18:25:13.202Z,27.77
2017-11-12T18:27:39.004Z,32.00
2017-11-12T18:30:05.473Z,30.57
2017-11-12T18:32:31.283Z,30.08
2017-11-12T18:34:57.077Z,24.80
2017-11-12T18:37:22.885Z,25.30
2017-11-12T18:39:48.723Z,27.33
2017-11-12T18:42:14.550Z,28.67
2017-11-12T18:44:41.208Z,21.87
2017-11-12T18:47:07.041Z,39.67
2017-11-12T18:49:32.902Z,27.93
2017-11-12T18:51:58.721Z,58.63
2017-11-12T18:54:26.335Z,24.87
2017-11-12T18:57:02.207Z,23.92
2017-11-12T18:59:30.850Z,34.42
2017-11-12T19:02:02.791Z,22.90
2017-11-12T19:04:28.615Z,30.23
2017-11-12T19:09:58.606Z,29.23
2017-11-12T19:12:24.472Z,26.80
2017-11-12T19:14:50.332Z,23.53
2017-11-12T19:17:16.169Z,24.23
2017-11-12T19:19:49.237Z,25.70
2017-11-12T19:22:25.028Z,30.27
2017-11-12T19:24:53.727Z,22.55
2017-11-12T19:27:25.737Z,26.62
2017-11-12T19:29:54.316Z,29.73
2017-11-12T19:32:20.170Z,23.27
2017-11-12T19:34:47.015Z,28.67
2017-11-12T19:37:12.874Z,28.67
2017-11-12T19:39:38.700Z,28.60
2017-11-12T19:42:04.526Z,28.10
2017-11-12T19:44:30.384Z,25.80
2017-11-12T19:46:56.221Z,34.37
2017-11-12T19:49:22.050Z,27.67
2017-11-12T19:51:48.229Z,28.70
2017-11-12T19:54:14.144Z,35.03
2017-11-12T19:56:40.007Z,34.90
2017-11-12T19:59:05.918Z,32.17
2017-11-12T20:01:31.816Z,42.20
2017-11-12T20:03:57.654Z,36.60
2017-11-12T20:06:23.544Z,39.97
2017-11-12T20:08:49.405Z,36.77
2017-11-12T20:11:15.240Z,39.83
2017-11-12T20:13:41.133Z,42.60
2017-11-12T20:16:07.006Z,41.80
2017-11-12T20:18:32.880Z,47.90
2017-11-12T20:20:59.180Z,42.53
2017-11-12T20:23:25.547Z,45.60
2017-11-12T20:25:51.356Z,42.47
2017-11-12T20:28:17.351Z,41.27
2017-11-12T20:30:43.175Z,45.40
2017-11-12T20:33:09.018Z,40.33
2017-11-12T20:35:34.845Z,48.57
2017-11-12T20:38:00.959Z,42.87
2017-11-12T20:40:26.800Z,48.33
2017-11-12T20:42:52.626Z,45.33
2017-11-12T20:45:18.453Z,45.93
2017-11-12T20:47:44.301Z,44.77
2017-11-12T20:50:10.147Z,41.83
2017-11-12T20:52:35.970Z,48.47
2017-11-12T20:55:04.831Z,59.07
2017-11-12T20:57:30.649Z,82.35
2017-11-12T20:59:56.467Z,78.57
2017-11-12T21:02:22.300Z,60.77
2017-11-12T21:04:48.134Z,60.87
2017-11-12T21:07:13.941Z,63.40
2017-11-12T21:09:39.748Z,51.20
2017-11-12T21:12:05.578Z,47.90
2017-11-12T21:14:31.386Z,104.23
2017-11-12T21:16:57.212Z,185.37
2017-11-12T21:19:25.347Z,191.80
2017-11-12T21:24:50.865Z,74.03
2017-11-12T21:27:20.700Z,157.70
2017-11-12T21:29:50.568Z,64.60
2017-11-12T21:32:23.172Z,74.30
2017-11-12T21:34:52.801Z,197.45
2017-11-12T21:40:18.626Z,105.43
2017-11-12T21:42:44.436Z,54.57
2017-11-12T21:45:10.248Z,132.03
2017-11-12T21:47:36.050Z,69.67
2017-11-12T21:50:01.880Z,71.00
2017-11-12T21:52:27.681Z,86.60
2017-11-12T21:54:53.464Z,92.13
2017-11-12T21:57:19.245Z,140.47
2017-11-12T21:59:45.060Z,65.77
2017-11-12T22:02:10.905Z,55.30
2017-11-12T22:04:36.708Z,73.03
2017-11-12T22:07:02.511Z,64.90
2017-11-12T22:09:28.418Z,228.53
2017-11-12T22:11:54.195Z,273.53
2017-11-12T22:14:19.975Z,59.93
2017-11-12T22:16:45.783Z,99.83
2017-11-12T22:19:11.581Z,96.17
2017-11-12T22:21:37.382Z,98.90
2017-11-12T22:24:03.227Z,72.93
2017-11-12T22:26:29.019Z,120.23
2017-11-12T22:28:54.813Z,149.80
2017-11-12T22:31:20.653Z,143.23
2017-11-12T22:33:46.441Z,179.10
2017-11-12T22:36:12.228Z,74.90
2017-11-12T22:38:38.025Z,78.13
2017-11-12T22:41:03.817Z,228.87
2017-11-12T22:43:29.613Z,145.60
2017-11-12T22:45:55.421Z,117.47
2017-11-12T22:48:21.220Z,104.10
2017-11-12T22:50:47.013Z,70.93
2017-11-12T22:53:12.817Z,82.30
2017-11-12T22:55:38.594Z,116.40
2017-11-12T22:58:04.417Z,103.63
2017-11-12T23:00:30.260Z,73.13
2017-11-12T23:02:56.049Z,53.67
2017-11-12T23:05:21.828Z,96.00
2017-11-12T23:07:47.612Z,169.17
2017-11-12T23:10:13.400Z,73.00
2017-11-12T23:12:39.193Z,45.47
2017-11-12T23:15:04.977Z,117.53
2017-11-12T23:17:30.766Z,71.97
2017-11-12T23:19:56.605Z,91.70
2017-11-12T23:22:22.404Z,66.73
2017-11-12T23:24:48.194Z,167.87
2017-11-12T23:27:14.308Z,75.03
2017-11-12T23:29:40.086Z,136.98
2017-11-12T23:32:05.873Z,146.63
2017-11-12T23:34:31.872Z,106.97
2017-11-12T23:36:57.657Z,117.07
2017-11-12T23:39:23.462Z,63.53
2017-11-12T23:41:49.261Z,159.63
2017-11-12T23:44:15.063Z,58.27
2017-11-12T23:46:40.859Z,170.53
2017-11-12T23:49:06.669Z,119.10
2017-11-12T23:51:32.444Z,274.73
2017-11-12T23:53:58.230Z,56.10
2017-11-12T23:56:24.062Z,127.60
2017-11-12T23:58:49.861Z,75.07
